Terminal Aerodrome Forecast
Issued by NWS Cleveland, OH

Home | Current Version | Previous Version | Graphics & Text | Print | Product List | Glossary On
Versions: 1 2 3 4 5 6 7 8 9 10 11 12 13 14 15 16 17 18 19 20 21
000
FTUS41 KCLE 262300
TAFCAK
TAF
KCAK 262331Z 2700/2724 35006KT 6SM -SN OVC012
      TEMPO 2710/2714 3SM -SN BKN009 OVC012=

USA.gov is the U.S. government's official web portal to all federal, state and local government web resources and services.